Time;durP1;ratioP1;P1;durP2;ratioP2;P2;SDS_P1;SDS_P2;PMS_P1;PMS_P2;Temp;Humidity;BMP_temperature;BMP_pressure;BME280_temperature;BME280_humidity;BME280_pressure;Samples;Min_cycle;Max_cycle;Signal;HPM_P1;HPM_P2
2021/01/14 00:00:14;;;;;;;;;;;5.00;71.20;;;;;;4983043;28;19926;-77
2021/01/14 00:02:41;;;;;;;;;;;5.00;71.10;;;;;;4982825;28;20374;-77
2021/01/14 00:05:08;;;;;;;;;;;5.00;71.20;;;;;;4977357;28;20013;-77
2021/01/14 00:07:34;;;;;;;;;;;5.00;71.40;;;;;;4986499;28;19932;-77
2021/01/14 00:10:03;;;;;;;;;;;5.00;71.30;;;;;;4980188;28;19976;-76
2021/01/14 00:12:30;;;;;;;;;;;5.10;71.40;;;;;;4979090;28;20020;-77
2021/01/14 00:14:56;;;;;;;;;;;5.10;71.40;;;;;;4967202;28;19930;-77
2021/01/14 00:17:22;;;;;;;;;;;5.10;71.60;;;;;;4953351;28;20295;-77
2021/01/14 00:19:49;;;;;;;;;;;5.00;71.80;;;;;;4985501;28;19937;-77
2021/01/14 00:22:16;;;;;;;;;;;5.00;71.90;;;;;;4978971;28;19953;-77
2021/01/14 00:24:43;;;;;;;;;;;5.00;72.40;;;;;;4984048;28;19933;-77
2021/01/14 00:27:10;;;;;;;;;;;5.00;72.40;;;;;;4987128;28;19926;-77
2021/01/14 00:29:36;;;;;;;;;;;5.10;72.30;;;;;;4979381;28;19926;-77
2021/01/14 00:32:03;;;;;;;;;;;5.10;72.30;;;;;;4941533;28;20007;-77
2021/01/14 00:34:29;;;;;;;;;;;5.10;72.30;;;;;;4981295;28;20318;-77
2021/01/14 00:39:41;;;;;;;;;;;5.10;72.70;;;;;;4971651;28;20597;-77
2021/01/14 00:42:07;;;;;;;;;;;5.10;73.20;;;;;;4951733;28;19972;-76
2021/01/14 00:44:34;;;;;;;;;;;5.10;73.50;;;;;;4980758;28;19926;-77
2021/01/14 00:47:00;;;;;;;;;;;5.10;74.00;;;;;;4985012;28;19964;-77
2021/01/14 00:49:27;;;;;;;;;;;5.10;74.40;;;;;;4986205;28;19925;-77
2021/01/14 00:51:53;;;;;;;;;;;5.10;74.90;;;;;;4990592;28;19980;-77
2021/01/14 00:54:19;;;;;;;;;;;5.10;75.10;;;;;;4974187;28;20529;-77
2021/01/14 00:56:45;;;;;;;;;;;5.00;75.50;;;;;;4952109;28;19930;-77
2021/01/14 00:59:12;;;;;;;;;;;5.00;75.80;;;;;;4983684;28;20370;-76
2021/01/14 01:01:40;;;;;;;;;;;5.00;76.00;;;;;;4968108;28;20656;-77
2021/01/14 01:04:06;;;;;;;;;;;5.00;76.00;;;;;;4989498;28;20032;-77
2021/01/14 01:06:36;;;;;;;;;;;5.00;76.00;;;;;;4966294;28;20301;-77
2021/01/14 01:09:06;;;;;;;;;;;5.10;76.00;;;;;;4983180;28;19973;-77
2021/01/14 01:11:33;;;;;;;;;;;5.10;76.00;;;;;;4982677;28;19930;-77
2021/01/14 01:13:59;;;;;;;;;;;5.10;76.00;;;;;;4982057;28;20433;-77
2021/01/14 01:16:25;;;;;;;;;;;5.00;76.10;;;;;;4985705;28;19946;-76
2021/01/14 01:18:51;;;;;;;;;;;5.00;76.30;;;;;;4965924;28;20012;-77
2021/01/14 01:21:18;;;;;;;;;;;5.00;76.70;;;;;;4981514;28;19940;-77
2021/01/14 01:23:44;;;;;;;;;;;5.00;76.90;;;;;;4985331;28;19933;-77
2021/01/14 01:26:17;;;;;;;;;;;5.00;77.00;;;;;;4981820;28;19937;-77
2021/01/14 01:28:43;;;;;;;;;;;5.00;76.90;;;;;;4965541;28;20294;-76
2021/01/14 01:31:10;;;;;;;;;;;5.00;77.10;;;;;;4984008;28;20255;-77
2021/01/14 01:33:37;;;;;;;;;;;5.00;77.20;;;;;;4980411;28;19936;-77
2021/01/14 01:36:04;;;;;;;;;;;5.00;77.40;;;;;;4986334;28;20001;-76
2021/01/14 01:38:30;;;;;;;;;;;5.00;77.40;;;;;;4986780;28;19930;-77
2021/01/14 01:40:57;;;;;;;;;;;5.00;77.60;;;;;;4984755;28;20294;-76
2021/01/14 01:43:25;;;;;;;;;;;5.00;77.70;;;;;;4988846;28;19930;-77
2021/01/14 01:45:51;;;;;;;;;;;5.00;77.90;;;;;;4973365;28;20008;-77
2021/01/14 01:48:18;;;;;;;;;;;5.00;77.90;;;;;;4987816;28;19976;-77
2021/01/14 01:50:45;;;;;;;;;;;5.00;77.90;;;;;;4984989;28;21172;-77
2021/01/14 01:53:12;;;;;;;;;;;5.00;77.90;;;;;;4987901;28;20029;-77
2021/01/14 01:55:38;;;;;;;;;;;5.10;77.90;;;;;;4982257;28;20072;-77
2021/01/14 01:58:05;;;;;;;;;;;5.10;77.80;;;;;;4971459;28;19933;-77
2021/01/14 02:00:32;;;;;;;;;;;5.10;77.90;;;;;;4982671;28;20654;-77
2021/01/14 02:02:58;;;;;;;;;;;5.10;78.00;;;;;;4987783;28;20012;-77
2021/01/14 02:05:24;;;;;;;;;;;5.10;78.10;;;;;;4982285;28;20037;-77
2021/01/14 02:07:50;;;;;;;;;;;5.10;78.40;;;;;;4970693;28;19926;-77
2021/01/14 02:10:35;;;;;;;;;;;5.10;78.50;;;;;;4981669;28;20405;-77
2021/01/14 02:13:02;;;;;;;;;;;5.10;78.40;;;;;;4969287;28;20065;-77
2021/01/14 02:15:30;;;;;;;;;;;5.10;78.40;;;;;;4973082;28;19934;-77
2021/01/14 02:17:56;;;;;;;;;;;5.10;78.30;;;;;;4987770;28;19936;-77
2021/01/14 02:20:22;;;;;;;;;;;5.20;78.20;;;;;;4951560;28;20397;-77
2021/01/14 02:23:07;;;;;;;;;;;5.10;78.00;;;;;;4985238;28;19937;-77
2021/01/14 02:25:43;;;;;;;;;;;5.10;78.10;;;;;;4971693;28;19937;-77
2021/01/14 02:28:09;;;;;;;;;;;5.10;77.90;;;;;;4985586;28;20016;-77
2021/01/14 02:30:36;;;;;;;;;;;5.10;77.10;;;;;;4984303;28;19929;-77
2021/01/14 02:33:02;;;;;;;;;;;5.10;76.20;;;;;;4966509;28;20243;-77
2021/01/14 02:35:29;;;;;;;;;;;5.10;75.10;;;;;;4985313;28;20017;-77
2021/01/14 02:37:55;;;;;;;;;;;5.10;74.70;;;;;;4982862;28;19926;-77
2021/01/14 02:40:22;;;;;;;;;;;5.10;74.20;;;;;;4985556;28;19926;-77
2021/01/14 02:42:49;;;;;;;;;;;5.20;73.30;;;;;;4983638;28;19976;-77
2021/01/14 02:45:15;;;;;;;;;;;5.10;72.20;;;;;;4966300;28;19930;-77
2021/01/14 02:47:43;;;;;;;;;;;5.10;71.40;;;;;;4973020;28;19930;-77
2021/01/14 02:50:11;;;;;;;;;;;5.10;71.20;;;;;;4986676;28;19961;-77
2021/01/14 02:52:39;;;;;;;;;;;5.10;70.50;;;;;;4991933;28;19925;-77
2021/01/14 02:55:06;;;;;;;;;;;5.10;69.60;;;;;;4997599;28;19949;-77
2021/01/14 02:57:32;;;;;;;;;;;5.00;69.40;;;;;;4992012;28;19934;-77
2021/01/14 03:00:00;;;;;;;;;;;5.10;69.00;;;;;;4989622;28;19965;-76
2021/01/14 03:02:28;;;;;;;;;;;5.10;69.10;;;;;;4990944;28;20374;-77
2021/01/14 03:04:57;;;;;;;;;;;5.10;69.00;;;;;;4961166;28;19925;-77
2021/01/14 03:07:25;;;;;;;;;;;5.20;69.20;;;;;;4967751;28;19933;-77
2021/01/14 03:09:52;;;;;;;;;;;5.20;69.20;;;;;;4988307;28;20404;-77
2021/01/14 03:12:18;;;;;;;;;;;5.20;68.80;;;;;;4986154;28;20297;-77
2021/01/14 03:14:44;;;;;;;;;;;5.20;68.50;;;;;;4965733;28;19937;-77
2021/01/14 03:17:10;;;;;;;;;;;5.20;68.50;;;;;;4959189;28;19996;-77
2021/01/14 03:19:37;;;;;;;;;;;5.20;68.30;;;;;;4955725;28;19940;-77
2021/01/14 03:22:05;;;;;;;;;;;5.20;68.20;;;;;;4952513;28;19937;-77
2021/01/14 03:24:31;;;;;;;;;;;5.20;68.00;;;;;;4982419;28;19957;-77
2021/01/14 03:26:57;;;;;;;;;;;5.20;67.90;;;;;;4984290;28;20013;-77
2021/01/14 03:29:24;;;;;;;;;;;5.10;68.20;;;;;;4968850;28;20443;-77
2021/01/14 03:31:50;;;;;;;;;;;5.10;68.60;;;;;;4964257;28;19932;-77
2021/01/14 03:34:16;;;;;;;;;;;5.10;68.50;;;;;;4983298;28;19969;-77
2021/01/14 03:36:57;;;;;;;;;;;5.20;68.30;;;;;;4982454;28;19980;-77
2021/01/14 03:39:24;;;;;;;;;;;5.20;68.60;;;;;;4985983;28;19964;-77
2021/01/14 03:41:52;;;;;;;;;;;5.10;68.70;;;;;;4985779;28;19926;-77
2021/01/14 03:44:19;;;;;;;;;;;5.10;68.70;;;;;;4982321;28;20367;-77
2021/01/14 03:46:46;;;;;;;;;;;5.10;68.70;;;;;;4977771;28;19938;-77
2021/01/14 03:49:12;;;;;;;;;;;5.10;68.90;;;;;;4970543;28;19926;-77
2021/01/14 03:51:39;;;;;;;;;;;5.10;69.20;;;;;;4980776;28;19938;-77
2021/01/14 03:54:06;;;;;;;;;;;5.10;69.00;;;;;;4962766;28;19929;-77
2021/01/14 03:56:37;;;;;;;;;;;5.10;68.80;;;;;;4980152;28;19936;-77
2021/01/14 03:59:03;;;;;;;;;;;5.10;68.50;;;;;;4972377;28;19961;-77
2021/01/14 04:01:34;;;;;;;;;;;5.10;68.70;;;;;;4981672;28;19980;-77
2021/01/14 04:04:00;;;;;;;;;;;5.10;68.70;;;;;;4984634;28;19925;-77
2021/01/14 04:06:34;;;;;;;;;;;5.10;68.70;;;;;;4984122;28;19929;-77
2021/01/14 04:09:00;;;;;;;;;;;5.00;68.60;;;;;;4983595;28;19926;-77
2021/01/14 04:11:27;;;;;;;;;;;5.00;68.90;;;;;;4965566;28;20349;-77
2021/01/14 04:13:53;;;;;;;;;;;5.00;68.90;;;;;;4978826;28;20012;-77
2021/01/14 04:16:20;;;;;;;;;;;5.00;68.70;;;;;;4969351;28;19980;-77
2021/01/14 04:18:46;;;;;;;;;;;5.00;68.70;;;;;;4966180;28;19936;-77
2021/01/14 04:21:13;;;;;;;;;;;5.00;68.80;;;;;;4984288;28;19981;-77
2021/01/14 04:23:40;;;;;;;;;;;5.00;68.70;;;;;;4967813;28;20017;-77
2021/01/14 04:26:07;;;;;;;;;;;5.00;68.50;;;;;;4983046;28;20788;-77
2021/01/14 04:28:34;;;;;;;;;;;5.00;67.60;;;;;;4985574;28;19930;-77
2021/01/14 04:31:00;;;;;;;;;;;5.00;67.60;;;;;;4979926;28;19926;-77
2021/01/14 04:33:26;;;;;;;;;;;5.00;67.10;;;;;;4968820;28;19936;-77
2021/01/14 04:35:55;;;;;;;;;;;4.90;67.10;;;;;;4983174;28;19960;-77
2021/01/14 04:38:22;;;;;;;;;;;4.90;67.00;;;;;;4983728;28;19926;-77
2021/01/14 04:40:55;;;;;;;;;;;4.90;66.20;;;;;;4985415;28;19926;-77
2021/01/14 04:43:25;;;;;;;;;;;4.80;65.40;;;;;;4967361;28;20253;-77
2021/01/14 04:46:05;;;;;;;;;;;4.80;65.50;;;;;;4984015;28;19926;-77
2021/01/14 04:48:33;;;;;;;;;;;4.70;65.90;;;;;;4986134;28;19926;-77
2021/01/14 04:51:06;;;;;;;;;;;4.70;66.00;;;;;;4987672;28;20281;-77
2021/01/14 04:53:34;;;;;;;;;;;4.70;65.80;;;;;;4987141;28;20744;-77
2021/01/14 04:56:01;;;;;;;;;;;4.70;65.50;;;;;;4990792;28;19941;-77
2021/01/14 04:58:28;;;;;;;;;;;4.70;65.60;;;;;;4987453;28;19934;-77
2021/01/14 05:00:56;;;;;;;;;;;4.70;65.80;;;;;;4986597;28;19926;-77
2021/01/14 05:03:23;;;;;;;;;;;4.70;65.40;;;;;;4987153;28;19926;-77
2021/01/14 05:05:51;;;;;;;;;;;4.70;65.20;;;;;;4982314;28;20266;-77
2021/01/14 05:08:24;;;;;;;;;;;4.70;65.20;;;;;;4982350;28;19926;-77
2021/01/14 05:10:53;;;;;;;;;;;4.70;65.10;;;;;;4967222;28;20454;-77
2021/01/14 05:13:19;;;;;;;;;;;4.70;65.60;;;;;;4986599;28;19926;-77
2021/01/14 05:15:48;;;;;;;;;;;4.60;65.90;;;;;;4985106;28;20379;-77
2021/01/14 05:18:16;;;;;;;;;;;4.60;65.70;;;;;;4985292;28;19930;-77
2021/01/14 05:20:42;;;;;;;;;;;4.60;65.80;;;;;;4985808;28;19926;-77
2021/01/14 05:23:09;;;;;;;;;;;4.50;65.70;;;;;;4973808;28;19943;-77
2021/01/14 05:25:35;;;;;;;;;;;4.50;65.70;;;;;;4985244;28;19941;-77
2021/01/14 05:28:08;;;;;;;;;;;4.50;65.40;;;;;;4985953;28;19932;-77
2021/01/14 05:30:35;;;;;;;;;;;4.50;65.40;;;;;;4982353;28;19929;-77
2021/01/14 05:33:03;;;;;;;;;;;4.50;65.70;;;;;;4985750;28;20313;-77
2021/01/14 05:35:30;;;;;;;;;;;4.50;65.00;;;;;;4972745;28;21884;-77
2021/01/14 05:38:03;;;;;;;;;;;4.50;65.10;;;;;;4984816;28;19926;-77
2021/01/14 05:40:32;;;;;;;;;;;4.50;64.80;;;;;;4979717;28;19933;-77
2021/01/14 05:43:01;;;;;;;;;;;4.50;65.00;;;;;;4968095;28;19938;-77
2021/01/14 05:45:27;;;;;;;;;;;4.50;65.10;;;;;;4982119;28;19948;-76
2021/01/14 05:48:06;;;;;;;;;;;4.50;65.70;;;;;;4984747;28;19926;-77
2021/01/14 05:50:40;;;;;;;;;;;4.50;65.20;;;;;;4980623;28;19976;-77
2021/01/14 05:53:17;;;;;;;;;;;4.50;65.50;;;;;;4967903;28;19926;-77
2021/01/14 05:55:44;;;;;;;;;;;4.50;65.50;;;;;;4981657;28;20029;-77
2021/01/14 05:58:18;;;;;;;;;;;4.50;66.00;;;;;;4989358;28;19936;-77
2021/01/14 06:00:45;;;;;;;;;;;4.50;65.50;;;;;;4982761;28;19926;-77
2021/01/14 06:03:21;;;;;;;;;;;4.40;66.00;;;;;;4968490;28;19930;-77
2021/01/14 06:05:47;;;;;;;;;;;4.40;66.10;;;;;;4970383;28;19969;-76
2021/01/14 06:08:24;;;;;;;;;;;4.40;65.80;;;;;;4954176;28;19941;-77
2021/01/14 06:10:50;;;;;;;;;;;4.40;65.50;;;;;;4983938;28;19933;-77
2021/01/14 06:13:17;;;;;;;;;;;4.40;65.40;;;;;;4982607;28;20021;-77
2021/01/14 06:15:43;;;;;;;;;;;4.40;65.80;;;;;;4984018;28;19940;-77
2021/01/14 06:18:11;;;;;;;;;;;4.40;65.30;;;;;;4986130;28;19932;-77
2021/01/14 06:20:51;;;;;;;;;;;4.40;65.60;;;;;;4979375;28;20373;-77
2021/01/14 06:23:18;;;;;;;;;;;4.30;65.60;;;;;;4982810;28;19926;-77
2021/01/14 06:26:03;;;;;;;;;;;4.30;65.90;;;;;;4982462;28;19937;-77
2021/01/14 06:28:33;;;;;;;;;;;4.30;65.80;;;;;;4983081;28;20016;-77
2021/01/14 06:31:03;;;;;;;;;;;4.30;65.90;;;;;;4965984;28;19933;-77
2021/01/14 06:33:30;;;;;;;;;;;4.30;66.20;;;;;;4964054;28;19931;-77
2021/01/14 06:36:06;;;;;;;;;;;4.30;65.70;;;;;;4969684;28;19930;-77
2021/01/14 06:38:43;;;;;;;;;;;4.30;65.30;;;;;;4970762;28;19931;-77
2021/01/14 06:41:13;;;;;;;;;;;4.20;65.70;;;;;;4984625;28;19926;-77
2021/01/14 06:43:40;;;;;;;;;;;4.20;65.80;;;;;;4985044;28;19926;-77
2021/01/14 06:46:13;;;;;;;;;;;4.20;65.70;;;;;;4985543;28;20313;-77
2021/01/14 06:48:44;;;;;;;;;;;4.20;65.60;;;;;;4984251;28;19932;-77
2021/01/14 06:51:10;;;;;;;;;;;4.20;65.00;;;;;;4990757;28;19984;-77
2021/01/14 06:53:38;;;;;;;;;;;4.10;65.70;;;;;;5000038;28;19933;-77
2021/01/14 06:56:06;;;;;;;;;;;4.10;66.00;;;;;;4973785;28;19926;-77
2021/01/14 06:58:38;;;;;;;;;;;4.20;66.20;;;;;;4972481;28;20016;-77
2021/01/14 07:01:04;;;;;;;;;;;4.20;65.80;;;;;;4990067;28;20422;-77
2021/01/14 07:03:44;;;;;;;;;;;4.20;66.20;;;;;;4985933;28;20348;-77
2021/01/14 07:06:13;;;;;;;;;;;4.20;66.40;;;;;;4973181;28;20391;-77
2021/01/14 07:08:51;;;;;;;;;;;4.20;66.60;;;;;;4984849;28;19960;-77
2021/01/14 07:11:19;;;;;;;;;;;4.20;66.70;;;;;;4969035;28;19926;-77
2021/01/14 07:13:46;;;;;;;;;;;4.30;66.60;;;;;;4988048;28;19926;-77
2021/01/14 07:16:17;;;;;;;;;;;4.30;66.60;;;;;;4983063;28;19925;-78
2021/01/14 07:18:44;;;;;;;;;;;4.30;66.50;;;;;;4981062;28;19926;-77
2021/01/14 07:21:15;;;;;;;;;;;4.30;66.80;;;;;;4985846;28;19930;-77
2021/01/14 07:24:02;;;;;;;;;;;4.30;67.20;;;;;;4964209;28;20373;-77
2021/01/14 07:26:29;;;;;;;;;;;4.30;67.80;;;;;;4965363;28;20309;-77
2021/01/14 07:28:56;;;;;;;;;;;4.20;67.90;;;;;;4965939;28;19933;-77
2021/01/14 07:31:26;;;;;;;;;;;4.20;67.40;;;;;;4985809;28;19925;-77
2021/01/14 07:33:53;;;;;;;;;;;4.20;67.20;;;;;;4965160;28;20612;-77
2021/01/14 07:36:24;;;;;;;;;;;4.20;66.50;;;;;;4964344;28;20577;-77
2021/01/14 07:38:54;;;;;;;;;;;4.20;66.20;;;;;;4979328;28;19926;-77
2021/01/14 07:41:21;;;;;;;;;;;4.20;66.10;;;;;;4982227;28;19929;-77
2021/01/14 07:43:48;;;;;;;;;;;4.30;65.90;;;;;;4982872;28;19940;-77
2021/01/14 07:46:15;;;;;;;;;;;4.30;66.00;;;;;;4979538;28;20009;-78
2021/01/14 07:48:42;;;;;;;;;;;4.30;66.00;;;;;;4985341;28;19949;-77
2021/01/14 07:51:09;;;;;;;;;;;4.20;66.70;;;;;;4958034;28;19933;-77
2021/01/14 07:53:36;;;;;;;;;;;4.20;66.60;;;;;;4983059;28;19945;-77
2021/01/14 07:56:24;;;;;;;;;;;4.20;67.00;;;;;;4980632;28;19933;-77
2021/01/14 07:58:58;;;;;;;;;;;4.20;67.60;;;;;;4965035;28;19932;-77
2021/01/14 08:01:24;;;;;;;;;;;4.20;67.60;;;;;;4983447;28;20299;-77
2021/01/14 08:03:50;;;;;;;;;;;4.20;67.10;;;;;;4984692;28;19960;-77
2021/01/14 08:06:18;;;;;;;;;;;4.30;67.00;;;;;;4970205;28;19930;-77
2021/01/14 08:09:03;;;;;;;;;;;4.20;67.40;;;;;;4980226;28;20432;-77
2021/01/14 08:11:37;;;;;;;;;;;4.30;67.70;;;;;;4962565;28;19934;-77
2021/01/14 08:14:04;;;;;;;;;;;4.30;67.90;;;;;;4961306;28;19932;-79
2021/01/14 08:16:45;;;;;;;;;;;4.30;67.60;;;;;;4979460;28;20006;-77
2021/01/14 08:19:14;;;;;;;;;;;4.30;68.00;;;;;;4984346;28;19937;-76
2021/01/14 08:21:46;;;;;;;;;;;4.30;68.10;;;;;;4982355;28;19930;-76
2021/01/14 08:24:31;;;;;;;;;;;4.30;68.30;;;;;;4966701;28;19934;-77
2021/01/14 08:27:02;;;;;;;;;;;4.30;68.10;;;;;;4976958;28;19941;-77
2021/01/14 08:29:51;;;;;;;;;;;4.30;67.80;;;;;;4973642;28;19964;-77
2021/01/14 08:32:37;;;;;;;;;;;4.40;68.00;;;;;;4969918;28;19956;-77
2021/01/14 08:35:23;;;;;;;;;;;4.40;68.30;;;;;;4961048;28;19933;-77
2021/01/14 08:37:49;;;;;;;;;;;4.40;68.90;;;;;;4982685;28;20009;-77
2021/01/14 08:40:21;;;;;;;;;;;4.40;68.80;;;;;;4976032;28;19926;-77
2021/01/14 08:42:58;;;;;;;;;;;4.40;68.90;;;;;;4980635;28;19926;-76
2021/01/14 08:45:27;;;;;;;;;;;4.40;69.10;;;;;;4971969;28;20025;-76
2021/01/14 08:48:00;;;;;;;;;;;4.40;68.90;;;;;;4984043;28;19926;-77
2021/01/14 08:50:34;;;;;;;;;;;4.40;68.20;;;;;;4993159;28;19932;-76
2021/01/14 08:53:08;;;;;;;;;;;4.40;67.90;;;;;;4983807;28;19967;-76
2021/01/14 08:55:34;;;;;;;;;;;4.40;68.50;;;;;;4988370;28;20305;-76
2021/01/14 08:58:03;;;;;;;;;;;4.40;68.50;;;;;;4964216;28;20021;-76
2021/01/14 09:00:31;;;;;;;;;;;4.40;67.80;;;;;;4985339;28;20390;-76
2021/01/14 09:02:58;;;;;;;;;;;4.40;68.00;;;;;;4989848;28;20378;-76
2021/01/14 09:05:25;;;;;;;;;;;4.40;68.40;;;;;;4979768;28;19936;-76
2021/01/14 09:08:12;;;;;;;;;;;4.40;68.00;;;;;;4969403;28;19930;-77
2021/01/14 09:10:47;;;;;;;;;;;4.50;67.60;;;;;;4983211;28;19926;-76
2021/01/14 09:13:17;;;;;;;;;;;4.50;67.80;;;;;;4986840;28;20263;-76
2021/01/14 09:15:46;;;;;;;;;;;4.50;68.00;;;;;;4978860;28;19944;-77
2021/01/14 09:18:14;;;;;;;;;;;4.50;67.80;;;;;;4986008;28;19933;-77
2021/01/14 09:20:40;;;;;;;;;;;4.50;67.20;;;;;;4987133;28;19992;-76
2021/01/14 09:23:17;;;;;;;;;;;4.60;67.20;;;;;;4986716;28;19933;-77
2021/01/14 09:25:47;;;;;;;;;;;4.60;67.30;;;;;;4981558;28;19933;-77
2021/01/14 09:28:14;;;;;;;;;;;4.60;67.50;;;;;;4965596;28;19926;-77
2021/01/14 09:30:41;;;;;;;;;;;4.60;67.20;;;;;;4971917;28;19968;-77
2021/01/14 09:33:07;;;;;;;;;;;4.60;67.50;;;;;;4971554;28;20020;-76
2021/01/14 09:35:35;;;;;;;;;;;4.60;67.70;;;;;;4982460;28;19936;-76
2021/01/14 09:38:02;;;;;;;;;;;4.70;67.70;;;;;;4961232;28;20025;-76
2021/01/14 09:40:28;;;;;;;;;;;4.70;67.50;;;;;;4970557;28;19940;-76
2021/01/14 09:42:58;;;;;;;;;;;4.70;67.10;;;;;;4987632;28;19960;-76
2021/01/14 09:45:24;;;;;;;;;;;4.70;66.60;;;;;;4966309;28;20011;-76
2021/01/14 09:47:51;;;;;;;;;;;4.70;66.70;;;;;;4974080;28;20009;-77
2021/01/14 09:50:18;;;;;;;;;;;4.70;66.60;;;;;;4986004;28;19964;-78
2021/01/14 09:52:44;;;;;;;;;;;4.70;66.60;;;;;;4985443;28;19926;-78
2021/01/14 09:55:13;;;;;;;;;;;4.80;66.70;;;;;;4980168;28;20022;-77
2021/01/14 09:58:01;;;;;;;;;;;4.80;66.90;;;;;;4978162;28;19963;-77
2021/01/14 10:00:28;;;;;;;;;;;4.80;66.60;;;;;;4967288;28;20401;-79
2021/01/14 10:03:00;;;;;;;;;;;4.90;66.40;;;;;;4949037;28;19976;-79
2021/01/14 10:05:27;;;;;;;;;;;4.90;66.10;;;;;;4977213;28;19934;-79
2021/01/14 10:07:59;;;;;;;;;;;4.90;66.20;;;;;;4977288;28;19926;-77
2021/01/14 10:10:28;;;;;;;;;;;4.90;65.20;;;;;;4961285;28;19934;-78
2021/01/14 10:12:55;;;;;;;;;;;4.90;64.90;;;;;;4981787;28;20033;-79
2021/01/14 10:15:21;;;;;;;;;;;4.90;65.00;;;;;;4982671;28;19926;-78
2021/01/14 10:17:48;;;;;;;;;;;5.00;65.60;;;;;;4987858;28;20369;-80
2021/01/14 10:20:14;;;;;;;;;;;5.00;65.90;;;;;;4971481;28;19980;-79
2021/01/14 10:22:58;;;;;;;;;;;5.00;66.10;;;;;;4988544;28;19932;-78
2021/01/14 10:25:25;;;;;;;;;;;5.10;66.10;;;;;;4986638;28;20429;-77
2021/01/14 10:28:07;;;;;;;;;;;5.10;65.70;;;;;;4986323;28;20097;-79
2021/01/14 10:30:37;;;;;;;;;;;5.10;65.30;;;;;;4978004;28;19954;-79
2021/01/14 10:33:04;;;;;;;;;;;5.00;65.50;;;;;;4993807;28;19925;-79
2021/01/14 10:35:32;;;;;;;;;;;5.10;65.70;;;;;;4983462;28;20487;-77
2021/01/14 10:38:02;;;;;;;;;;;5.10;65.70;;;;;;4990056;28;20358;-77
2021/01/14 10:40:32;;;;;;;;;;;5.10;65.80;;;;;;4966576;28;19926;-79
2021/01/14 10:43:00;;;;;;;;;;;5.10;65.90;;;;;;4992036;28;19926;-78
2021/01/14 10:45:29;;;;;;;;;;;5.20;65.50;;;;;;5000930;28;19949;-79
2021/01/14 10:48:12;;;;;;;;;;;5.10;65.60;;;;;;4998812;28;19933;-78
2021/01/14 10:50:52;;;;;;;;;;;5.20;65.20;;;;;;4981379;28;20313;-79
2021/01/14 10:53:26;;;;;;;;;;;5.20;65.10;;;;;;4987595;28;19930;-78
2021/01/14 10:56:01;;;;;;;;;;;5.10;65.10;;;;;;4981253;28;19932;-78
2021/01/14 10:58:27;;;;;;;;;;;5.10;65.00;;;;;;4986100;28;19961;-78
2021/01/14 11:00:55;;;;;;;;;;;5.10;64.90;;;;;;4982391;28;19966;-78
2021/01/14 11:03:22;;;;;;;;;;;5.10;64.90;;;;;;4987327;28;19936;-78
2021/01/14 11:05:52;;;;;;;;;;;5.10;64.70;;;;;;4983530;28;19926;-78
2021/01/14 11:08:22;;;;;;;;;;;5.20;64.40;;;;;;4983102;28;19930;-78
2021/01/14 11:11:05;;;;;;;;;;;5.20;64.40;;;;;;4981987;28;19976;-78
2021/01/14 11:13:42;;;;;;;;;;;5.20;64.20;;;;;;4970491;28;19926;-78
2021/01/14 11:16:09;;;;;;;;;;;5.30;63.70;;;;;;4968930;28;19926;-78
2021/01/14 11:18:42;;;;;;;;;;;5.30;63.70;;;;;;4973594;28;19929;-78
2021/01/14 11:21:09;;;;;;;;;;;5.30;63.70;;;;;;4991937;28;19941;-78
2021/01/14 11:23:36;;;;;;;;;;;5.40;63.20;;;;;;4988077;28;19933;-78
2021/01/14 11:26:03;;;;;;;;;;;5.40;63.10;;;;;;4988765;28;20420;-78
2021/01/14 11:28:30;;;;;;;;;;;5.40;63.20;;;;;;4988429;28;19926;-78
2021/01/14 11:30:58;;;;;;;;;;;5.40;63.30;;;;;;4985069;28;19985;-78
2021/01/14 11:33:26;;;;;;;;;;;5.40;63.30;;;;;;4990041;28;20429;-78
2021/01/14 11:35:53;;;;;;;;;;;5.40;63.10;;;;;;4991849;28;20072;-78
2021/01/14 11:38:20;;;;;;;;;;;5.40;63.00;;;;;;4971269;28;19929;-78
2021/01/14 11:40:47;;;;;;;;;;;5.40;63.10;;;;;;4968803;28;20012;-78
2021/01/14 11:43:13;;;;;;;;;;;5.40;63.10;;;;;;4983060;28;20386;-78
2021/01/14 11:45:40;;;;;;;;;;;5.50;63.20;;;;;;4966870;28;19961;-79
2021/01/14 11:48:06;;;;;;;;;;;5.50;63.10;;;;;;4982925;28;19961;-78
2021/01/14 11:50:32;;;;;;;;;;;5.50;62.80;;;;;;4987314;28;19929;-78
2021/01/14 11:52:59;;;;;;;;;;;5.50;62.40;;;;;;4973196;28;19930;-78
2021/01/14 11:55:25;;;;;;;;;;;5.60;62.10;;;;;;4981952;28;19991;-78
2021/01/14 11:57:54;;;;;;;;;;;5.60;61.80;;;;;;4984358;28;19972;-78
2021/01/14 12:00:21;;;;;;;;;;;5.50;62.10;;;;;;4982761;28;20279;-78
2021/01/14 12:02:47;;;;;;;;;;;5.50;62.00;;;;;;4987232;28;19926;-78
2021/01/14 12:05:13;;;;;;;;;;;5.50;62.20;;;;;;4985216;28;19936;-78
2021/01/14 12:07:40;;;;;;;;;;;5.50;62.40;;;;;;4983048;28;19968;-78
2021/01/14 12:10:06;;;;;;;;;;;5.50;62.40;;;;;;4973482;28;19957;-78
2021/01/14 12:12:36;;;;;;;;;;;5.60;62.50;;;;;;4969343;28;20016;-78
2021/01/14 12:15:05;;;;;;;;;;;5.50;62.10;;;;;;4966426;28;20033;-78
2021/01/14 12:17:31;;;;;;;;;;;5.60;62.30;;;;;;4983672;28;20386;-78
2021/01/14 12:19:58;;;;;;;;;;;5.60;62.30;;;;;;4985214;28;19992;-78
2021/01/14 12:22:25;;;;;;;;;;;5.60;62.40;;;;;;4989894;28;19934;-78
2021/01/14 12:24:51;;;;;;;;;;;5.60;62.30;;;;;;4988625;28;20416;-78
2021/01/14 12:27:17;;;;;;;;;;;5.60;61.90;;;;;;4985163;28;19977;-78
2021/01/14 12:29:43;;;;;;;;;;;5.60;62.00;;;;;;4982499;28;19926;-78
2021/01/14 12:32:10;;;;;;;;;;;5.60;61.40;;;;;;4988990;28;20691;-78
2021/01/14 12:34:36;;;;;;;;;;;5.60;61.40;;;;;;4988283;28;19932;-78
2021/01/14 12:37:02;;;;;;;;;;;5.60;61.30;;;;;;4988153;28;20063;-78
2021/01/14 12:39:31;;;;;;;;;;;5.60;61.60;;;;;;4970111;28;19932;-79
2021/01/14 12:41:58;;;;;;;;;;;5.60;61.40;;;;;;4990209;28;19926;-78
2021/01/14 12:44:24;;;;;;;;;;;5.60;61.20;;;;;;5005710;28;19920;-79
2021/01/14 12:46:50;;;;;;;;;;;5.70;61.40;;;;;;4996573;28;19996;-78
2021/01/14 12:49:17;;;;;;;;;;;5.70;61.20;;;;;;4986035;28;19929;-78
2021/01/14 12:51:44;;;;;;;;;;;5.70;61.20;;;;;;4976744;28;20370;-78
2021/01/14 12:54:11;;;;;;;;;;;5.70;61.10;;;;;;4972080;28;19964;-78
2021/01/14 12:56:37;;;;;;;;;;;5.70;61.10;;;;;;4967288;28;19936;-78
2021/01/14 12:59:05;;;;;;;;;;;5.70;61.10;;;;;;4983603;28;19926;-79
2021/01/14 13:01:32;;;;;;;;;;;5.70;61.40;;;;;;4982932;28;19932;-78
2021/01/14 13:04:03;;;;;;;;;;;5.60;61.20;;;;;;4982271;28;19934;-77
2021/01/14 13:06:30;;;;;;;;;;;5.60;61.20;;;;;;4984274;28;19933;-79
2021/01/14 13:09:00;;;;;;;;;;;5.60;61.00;;;;;;4982899;28;19969;-79
2021/01/14 13:11:29;;;;;;;;;;;5.60;61.10;;;;;;4982496;28;19926;-79
2021/01/14 13:13:57;;;;;;;;;;;5.60;61.40;;;;;;4969478;28;19934;-79
2021/01/14 13:16:37;;;;;;;;;;;5.60;61.40;;;;;;4986238;28;19926;-79
2021/01/14 13:19:07;;;;;;;;;;;5.60;61.20;;;;;;4970845;28;19953;-80
2021/01/14 13:21:35;;;;;;;;;;;5.60;61.20;;;;;;4972593;28;20020;-79
2021/01/14 13:24:04;;;;;;;;;;;5.70;60.80;;;;;;4971502;28;19962;-78
2021/01/14 13:26:31;;;;;;;;;;;5.60;61.00;;;;;;4986580;28;19934;-80
2021/01/14 13:28:58;;;;;;;;;;;5.60;60.80;;;;;;4968954;28;20450;-79
2021/01/14 13:31:24;;;;;;;;;;;5.60;60.60;;;;;;4971060;28;19926;-80
2021/01/14 13:33:50;;;;;;;;;;;5.60;60.60;;;;;;4970366;28;20005;-78
2021/01/14 13:36:17;;;;;;;;;;;5.60;61.10;;;;;;4970330;28;19934;-78
2021/01/14 13:38:44;;;;;;;;;;;5.60;61.50;;;;;;4985200;28;19932;-78
2021/01/14 13:41:11;;;;;;;;;;;5.60;61.80;;;;;;4973339;28;19929;-78
2021/01/14 13:43:39;;;;;;;;;;;5.60;61.70;;;;;;4987010;28;20028;-78
2021/01/14 13:46:06;;;;;;;;;;;5.60;61.10;;;;;;4987833;28;19926;-79
2021/01/14 13:48:33;;;;;;;;;;;5.60;61.50;;;;;;4965338;28;19990;-78
2021/01/14 13:50:59;;;;;;;;;;;5.60;61.50;;;;;;4989280;28;19978;-78
2021/01/14 13:53:26;;;;;;;;;;;5.60;61.50;;;;;;4982471;28;19936;-78
2021/01/14 13:55:57;;;;;;;;;;;5.60;61.70;;;;;;4972129;28;19930;-79
2021/01/14 13:58:23;;;;;;;;;;;5.60;61.90;;;;;;4979375;28;20342;-80
2021/01/14 14:00:50;;;;;;;;;;;5.60;62.30;;;;;;4984008;28;19930;-78
2021/01/14 14:03:19;;;;;;;;;;;5.60;62.50;;;;;;4950761;28;19926;-79
2021/01/14 14:05:46;;;;;;;;;;;5.50;62.50;;;;;;4958026;28;19926;-77
2021/01/14 14:08:12;;;;;;;;;;;5.50;62.40;;;;;;4979336;28;19933;-76
2021/01/14 14:10:41;;;;;;;;;;;5.50;62.30;;;;;;4977667;28;19938;-76
2021/01/14 14:13:08;;;;;;;;;;;5.40;62.50;;;;;;4984871;28;19926;-76
2021/01/14 14:15:34;;;;;;;;;;;5.40;62.70;;;;;;4986118;28;19932;-76
2021/01/14 14:18:00;;;;;;;;;;;5.30;62.90;;;;;;4981231;28;20262;-76
2021/01/14 14:20:27;;;;;;;;;;;5.30;63.10;;;;;;4969293;28;19929;-76
2021/01/14 14:22:53;;;;;;;;;;;5.20;63.20;;;;;;4986831;28;19929;-76
2021/01/14 14:25:20;;;;;;;;;;;5.20;63.50;;;;;;4984486;28;19925;-77
2021/01/14 14:27:46;;;;;;;;;;;5.20;63.90;;;;;;4984272;28;19937;-77
2021/01/14 14:30:13;;;;;;;;;;;5.20;63.80;;;;;;4974479;28;20020;-77
2021/01/14 14:32:39;;;;;;;;;;;5.20;63.60;;;;;;4962155;28;19968;-76
2021/01/14 14:35:06;;;;;;;;;;;5.10;63.60;;;;;;4979918;28;19930;-76
2021/01/14 14:37:32;;;;;;;;;;;5.10;63.90;;;;;;4966313;28;20283;-76
2021/01/14 14:39:58;;;;;;;;;;;5.10;64.00;;;;;;4976165;28;19929;-76
2021/01/14 14:42:27;;;;;;;;;;;5.10;64.20;;;;;;5002224;28;19933;-76